Time;durP1;ratioP1;P1;durP2;ratioP2;P2;SDS_P1;SDS_P2;PMS_P1;PMS_P2;Temp;Humidity;BMP_temperature;BMP_pressure;BME280_temperature;BME280_humidity;BME280_pressure;Samples;Min_cycle;Max_cycle;Signal;HPM_P1;HPM_P2
2024/01/01 00:59:23;;;;;;;9.90;6.82;;;;;;;;;;4784659;29;20485;-95
2024/01/01 01:01:50;;;;;;;16.52;9.93;;;;;;;;;;4755852;30;20116;-94
2024/01/01 01:04:17;;;;;;;17.58;9.60;;;;;;;;;;4758203;30;20088;-93
2024/01/01 01:09:57;;;;;;;21.60;11.70;;;;;;;;;;4802389;24;20063;-94
2024/01/01 01:12:23;;;;;;;25.95;12.52;;;;;;;;;;4744711;30;20080;-95
2024/01/01 01:14:52;;;;;;;21.33;12.40;;;;;;;;;;4745662;30;20133;-95
2024/01/01 01:17:18;;;;;;;25.63;13.98;;;;;;;;;;4744011;30;20080;-96
2024/01/01 01:19:44;;;;;;;21.13;12.38;;;;;;;;;;4738139;30;20283;-96
2024/01/01 01:22:10;;;;;;;24.55;14.05;;;;;;;;;;4753354;30;20158;-96
2024/01/01 01:24:36;;;;;;;22.08;13.82;;;;;;;;;;4740827;30;20062;-96
2024/01/01 01:27:06;;;;;;;28.30;16.70;;;;;;;;;;4756873;30;20056;-95
2024/01/01 01:29:34;;;;;;;27.58;16.65;;;;;;;;;;4745139;30;20052;-95
2024/01/01 01:32:01;;;;;;;24.25;16.27;;;;;;;;;;4763636;30;21301;-95
2024/01/01 01:34:37;;;;;;;32.08;18.30;;;;;;;;;;4764290;30;20142;-94
2024/01/01 01:37:03;;;;;;;37.47;20.95;;;;;;;;;;4749874;30;20200;-93
2024/01/01 01:39:38;;;;;;;35.67;19.92;;;;;;;;;;4752805;30;20058;-95
2024/01/01 01:42:09;;;;;;;38.50;22.45;;;;;;;;;;4762838;30;20060;-94
2024/01/01 01:44:37;;;;;;;39.35;22.85;;;;;;;;;;4746321;30;20138;-95
2024/01/01 01:47:04;;;;;;;36.10;21.95;;;;;;;;;;4742812;30;20090;-96
2024/01/01 01:49:31;;;;;;;38.03;23.20;;;;;;;;;;4740103;30;20060;-94
2024/01/01 01:51:59;;;;;;;40.38;25.17;;;;;;;;;;4739197;30;20056;-96
2024/01/01 01:54:25;;;;;;;42.40;26.08;;;;;;;;;;4739197;30;20176;-95
2024/01/01 01:56:53;;;;;;;35.25;20.60;;;;;;;;;;4757569;30;20134;-95
2024/01/01 01:59:21;;;;;;;40.60;23.98;;;;;;;;;;4738464;30;20453;-96
2024/01/01 02:01:48;;;;;;;39.47;22.08;;;;;;;;;;4739118;30;20052;-94
2024/01/01 02:04:14;;;;;;;42.20;24.00;;;;;;;;;;4736562;30;20083;-96
2024/01/01 02:06:40;;;;;;;33.00;19.63;;;;;;;;;;4738772;30;20146;-96
2024/01/01 02:09:08;;;;;;;30.55;21.65;;;;;;;;;;4738401;30;20148;-95
2024/01/01 02:11:34;;;;;;;33.67;21.17;;;;;;;;;;4752633;30;20221;-96
2024/01/01 02:14:34;;;;;;;38.97;22.75;;;;;;;;;;4737681;30;20165;-96
2024/01/01 02:17:02;;;;;;;37.75;19.92;;;;;;;;;;4753014;30;20086;-96
2024/01/01 02:19:34;;;;;;;35.22;18.40;;;;;;;;;;4738974;30;20079;-96
2024/01/01 02:22:03;;;;;;;29.35;17.05;;;;;;;;;;4752710;30;20055;-95
2024/01/01 02:24:32;;;;;;;37.35;17.90;;;;;;;;;;4743874;30;20059;-96
2024/01/01 02:26:58;;;;;;;31.85;16.13;;;;;;;;;;4745561;30;20073;-94
2024/01/01 02:29:27;;;;;;;34.90;17.02;;;;;;;;;;4745870;24;20048;-94
2024/01/01 02:32:08;;;;;;;27.23;19.00;;;;;;;;;;4727595;30;20426;-94
2024/01/01 02:34:40;;;;;;;27.70;16.48;;;;;;;;;;4725405;30;20490;-92
2024/01/01 02:37:18;;;;;;;30.58;18.52;;;;;;;;;;4726589;30;20112;-93
2024/01/01 02:40:26;;;;;;;31.63;17.40;;;;;;;;;;4751780;30;20082;-93
2024/01/01 02:43:03;;;;;;;35.75;18.30;;;;;;;;;;4724976;30;20062;-94
2024/01/01 02:45:38;;;;;;;34.88;19.73;;;;;;;;;;4714785;30;20397;-93
2024/01/01 02:48:09;;;;;;;30.85;18.55;;;;;;;;;;4731389;30;20060;-93
2024/01/01 02:53:26;;;;;;;27.55;18.55;;;;;;;;;;4786006;24;20075;-93
2024/01/01 02:55:52;;;;;;;26.17;16.70;;;;;;;;;;4773870;30;20067;-93
2024/01/01 02:58:21;;;;;;;26.55;15.77;;;;;;;;;;4772081;30;20092;-93
2024/01/01 03:00:53;;;;;;;20.48;12.00;;;;;;;;;;4786919;29;20044;-93
2024/01/01 03:03:20;;;;;;;20.40;12.65;;;;;;;;;;4757641;30;20051;-93
2024/01/01 03:06:06;;;;;;;23.48;12.75;;;;;;;;;;4769765;30;20061;-93
2024/01/01 03:08:44;;;;;;;20.55;11.30;;;;;;;;;;4770533;24;20058;-94
2024/01/01 03:11:17;;;;;;;23.13;12.95;;;;;;;;;;4746697;30;20056;-94
2024/01/01 03:13:43;;;;;;;20.13;11.02;;;;;;;;;;4758865;30;20141;-93
2024/01/01 03:16:10;;;;;;;18.23;11.32;;;;;;;;;;4724136;30;20064;-94
2024/01/01 03:18:38;;;;;;;18.83;11.38;;;;;;;;;;4771840;30;20060;-93
2024/01/01 03:21:06;;;;;;;18.70;11.10;;;;;;;;;;4758078;30;20083;-92
2024/01/01 03:23:32;;;;;;;21.05;11.27;;;;;;;;;;4755242;30;20048;-92
2024/01/01 03:26:02;;;;;;;16.58;10.95;;;;;;;;;;4760445;30;20114;-92
2024/01/01 03:28:48;;;;;;;16.17;11.65;;;7.00;99.90;;;;;;4745159;30;20056;-91
2024/01/01 03:31:15;;;;;;;18.73;10.75;;;;;;;;;;4758255;30;20051;-93
2024/01/01 03:34:01;;;;;;;17.60;10.43;;;;;;;;;;4760638;30;20060;-91
2024/01/01 03:36:31;;;;;;;21.65;10.60;;;;;;;;;;4762748;30;20490;-92
2024/01/01 03:39:04;;;;;;;15.90;10.63;;;;;;;;;;4747897;30;20082;-92
2024/01/01 03:42:10;;;;;;;21.35;9.70;;;7.50;99.90;;;;;;4777617;24;20066;-93
2024/01/01 03:44:41;;;;;;;14.48;8.25;;;;;;;;;;4781361;30;20063;-92
2024/01/01 03:47:13;;;;;;;18.65;8.75;;;;;;;;;;4744172;24;20079;-92
2024/01/01 03:49:41;;;;;;;17.75;9.35;;;;;;;;;;4808934;24;20067;-92
2024/01/01 03:52:18;;;;;;;16.20;8.57;;;;;;;;;;4745397;30;20047;-92
2024/01/01 03:54:51;;;;;;;13.90;7.82;;;;;;;;;;4725360;30;20106;-93
2024/01/01 03:57:27;;;;;;;14.73;7.95;;;;;;;;;;4743615;30;20087;-93
2024/01/01 04:02:29;;;;;;;16.98;6.88;;;;;;;;;;4780661;30;20055;-92
2024/01/01 04:08:34;;;;;;;13.43;5.55;;;;;;;;;;4741772;30;20059;-92
2024/01/01 04:11:03;;;;;;;8.32;5.05;;;;;;;;;;4729963;30;20108;-92
2024/01/01 04:13:29;;;;;;;9.18;5.35;;;;;;;;;;4741279;30;20059;-93
2024/01/01 04:15:55;;;;;;;6.53;4.90;;;;;;;;;;4726738;30;20053;-92
2024/01/01 04:18:22;;;;;;;9.13;4.32;;;;;;;;;;4723430;30;20056;-92
2024/01/01 04:20:49;;;;;;;8.38;5.10;;;;;;;;;;4725893;30;20080;-92
2024/01/01 04:23:16;;;;;;;6.45;4.00;;;;;;;;;;4720563;30;20057;-92
2024/01/01 04:25:48;;;;;;;6.95;4.25;;;;;;;;;;4734228;30;20540;-92
2024/01/01 04:28:22;;;;;;;9.55;3.53;;;;;;;;;;4735075;30;20067;-92
2024/01/01 04:30:49;;;;;;;7.13;4.00;;;;;;;;;;4735656;30;20066;-93
2024/01/01 04:33:18;;;;;;;5.90;4.10;;;;;;;;;;4714580;30;20134;-93
2024/01/01 04:35:47;;;;;;;7.70;4.32;;;;;;;;;;4730907;30;20056;-92
2024/01/01 04:38:14;;;;;;;10.82;3.97;;;;;;;;;;4718569;30;20422;-92
2024/01/01 04:40:40;;;;;;;6.13;3.83;;;;;;;;;;4714832;30;20128;-92
2024/01/01 04:43:06;;;;;;;5.82;3.33;;;;;;;;;;4716674;30;20053;-92
2024/01/01 04:45:35;;;;;;;7.88;3.58;;;;;;;;;;4705789;30;20053;-92
2024/01/01 04:48:02;;;;;;;5.28;2.88;;;;;;;;;;4705457;30;20057;-92
2024/01/01 04:50:29;;;;;;;5.55;3.10;;;;;;;;;;4706443;30;20092;-92
2024/01/01 04:52:55;;;;;;;4.00;2.88;;;;;;;;;;4726062;30;20136;-92
2024/01/01 04:55:21;;;;;;;6.93;3.08;;;;;;;;;;4709976;30;20067;-93
2024/01/01 05:00:14;;;;;;;10.25;3.15;;;;;;;;;;4804132;24;20079;-91
2024/01/01 05:02:50;;;;;;;8.00;2.88;;;;;;;;;;4755286;30;20047;-91
2024/01/01 05:05:16;;;;;;;7.20;2.50;;;;;;;;;;4763901;30;20092;-92
2024/01/01 05:07:53;;;;;;;5.30;2.75;;;;;;;;;;4734932;30;20094;-92
2024/01/01 05:10:24;;;;;;;6.05;2.90;;;;;;;;;;4779028;24;20052;-91
2024/01/01 05:12:52;;;;;;;5.45;3.30;;;;;;;;;;4723873;30;20064;-91
2024/01/01 05:15:23;;;;;;;4.05;2.78;;;;;;;;;;4777442;30;20113;-91
2024/01/01 05:18:02;;;;;;;8.23;3.25;;;;;;;;;;4732896;30;20064;-92
2024/01/01 05:20:28;;;;;;;6.72;3.20;;;;;;;;;;4739455;30;20056;-91
2024/01/01 05:23:04;;;;;;;5.47;2.85;;;;;;;;;;4767049;30;20059;-90
2024/01/01 05:25:55;;;;;;;9.70;3.60;;;;;;;;;;4724595;30;20052;-91
2024/01/01 05:28:27;;;;;;;6.80;2.75;;;;;;;;;;4740357;30;20064;-90
2024/01/01 05:31:01;;;;;;;8.18;3.50;;;;;;;;;;4734441;30;20056;-91
2024/01/01 05:33:45;;;;;;;10.15;3.33;;;;;;;;;;4733356;30;20055;-91
2024/01/01 05:36:30;;;;;;;12.73;3.58;;;;;;;;;;4749278;30;20055;-91
2024/01/01 05:38:58;;;;;;;5.60;3.08;;;;;;;;;;4723245;30;20070;-91
2024/01/01 05:41:37;;;;;;;8.07;3.00;;;;;;;;;;4766861;30;20066;-90
2024/01/01 05:44:22;;;;;;;5.03;3.03;;;;;;;;;;4752909;30;20075;-90
2024/01/01 05:46:52;;;;;;;6.15;3.17;;;;;;;;;;4736054;30;20059;-90
2024/01/01 05:49:23;;;;;;;11.43;3.67;;;;;;;;;;4734618;30;20059;-90
2024/01/01 05:51:49;;;;;;;10.90;3.40;;;;;;;;;;4760826;30;20064;-91
2024/01/01 05:54:15;;;;;;;13.88;3.65;;;;;;;;;;4770593;30;20054;-92
2024/01/01 05:56:44;;;;;;;8.43;3.22;;;;;;;;;;4742281;30;20057;-91
2024/01/01 05:59:10;;;;;;;7.10;3.05;;;;;;;;;;4741546;30;20056;-90
2024/01/01 06:01:36;;;;;;;7.35;3.20;;;;;;;;;;4736790;30;20057;-91
2024/01/01 06:04:02;;;;;;;9.10;3.03;;;;;;;;;;4733976;30;20088;-90
2024/01/01 06:06:28;;;;;;;9.23;3.17;;;;;;;;;;4730662;30;20056;-91
2024/01/01 06:08:54;;;;;;;5.75;2.58;;;;;;;;;;4732342;30;20093;-90
2024/01/01 06:11:20;;;;;;;5.60;3.88;;;;;;;;;;4734293;30;20064;-90
2024/01/01 06:13:55;;;;;;;7.18;2.25;;;;;;;;;;4758037;24;20052;-91
2024/01/01 06:16:29;;;;;;;5.90;3.20;;;;;;;;;;4772543;30;20056;-92
2024/01/01 06:18:55;;;;;;;3.97;1.98;;;;;;;;;;4747755;30;20066;-91
2024/01/01 06:21:37;;;;;;;6.25;2.10;;;;;;;;;;4746791;30;20123;-91
2024/01/01 06:24:03;;;;;;;6.55;2.53;;;;;;;;;;4746046;30;20056;-92
2024/01/01 06:26:52;;;;;;;4.90;3.00;;;;;;;;;;4730901;30;20479;-91
2024/01/01 06:29:19;;;;;;;6.72;2.50;;;;;;;;;;4773065;30;20088;-91
2024/01/01 06:31:54;;;;;;;7.80;2.30;;;;;;;;;;4760786;30;20052;-91
2024/01/01 06:34:31;;;;;;;7.50;2.67;;;;;;;;;;4750160;30;20091;-91
2024/01/01 06:37:00;;;;;;;5.57;2.05;;;;;;;;;;4767427;30;20059;-91
2024/01/01 06:39:33;;;;;;;9.95;2.60;;;;;;;;;;4732237;30;20605;-91
2024/01/01 06:42:04;;;;;;;8.88;2.90;;;;;;;;;;4735938;30;20131;-91
2024/01/01 06:44:30;;;;;;;7.38;2.88;;;;;;;;;;4715080;30;20057;-91
2024/01/01 06:46:56;;;;;;;9.23;3.00;;;;;;;;;;4714542;30;20053;-91
2024/01/01 06:49:23;;;;;;;6.82;2.60;;;;;;;;;;4714214;30;20135;-90
2024/01/01 06:51:50;;;;;;;14.52;3.08;;;;;;;;;;4728929;30;20157;-91
2024/01/01 06:54:17;;;;;;;5.18;2.83;;;;;;;;;;4713913;30;20123;-91
2024/01/01 06:56:43;;;;;;;5.70;3.40;;;;;;;;;;4713766;30;20068;-92
2024/01/01 06:59:15;;;;;;;7.38;2.70;;;;;;;;;;4713740;30;20415;-90
2024/01/01 07:01:42;;;;;;;8.15;3.38;;;;;;;;;;4729679;30;20057;-92
2024/01/01 07:04:09;;;;;;;8.10;3.08;;;;;;;;;;4716744;30;20056;-91
2024/01/01 07:06:35;;;;;;;8.00;2.88;;;;;;;;;;4713148;30;20052;-91
2024/01/01 07:09:01;;;;;;;18.10;3.13;;;;;;;;;;4702891;30;20053;-93
2024/01/01 07:11:28;;;;;;;10.13;4.43;;;;;;;;;;4741893;30;20056;-93
2024/01/01 07:13:54;;;;;;;7.45;2.40;;;;;;;;;;4704943;30;20128;-92
2024/01/01 07:16:20;;;;;;;2.33;1.33;;;;;;;;;;4738959;30;20055;-92
2024/01/01 07:18:46;;;;;;;6.05;1.70;;;;;;;;;;4746660;30;20094;-91
2024/01/01 07:21:12;;;;;;;1.00;0.82;;;;;;;;;;4726841;30;20056;-92
2024/01/01 07:23:38;;;;;;;6.07;1.08;;;;;;;;;;4741731;30;20071;-92
2024/01/01 07:26:05;;;;;;;1.42;0.95;;;;;;;;;;4733430;30;20108;-89
2024/01/01 07:28:31;;;;;;;1.55;1.45;;;;;;;;;;4744368;30;20114;-92
2024/01/01 07:30:58;;;;;;;0.90;0.90;;;;;;;;;;4729355;30;20140;-91
2024/01/01 07:33:24;;;;;;;1.27;0.98;;;;;;;;;;4746933;30;20060;-91
2024/01/01 07:35:50;;;;;;;5.50;1.15;;;;;;;;;;4722025;30;20055;-92
2024/01/01 07:38:16;;;;;;;4.13;1.00;;;;;;;;;;4709826;30;20092;-92
2024/01/01 07:40:43;;;;;;;1.95;1.00;;;;;;;;;;4729308;30;20511;-92
2024/01/01 07:43:10;;;;;;;1.80;0.88;;;;;;;;;;4739611;30;20060;-92
2024/01/01 07:45:41;;;;;;;2.08;1.08;;;;;;;;;;4741144;30;20091;-90
2024/01/01 07:48:13;;;;;;;0.82;0.82;;;;;;;;;;4747324;30;20048;-92
2024/01/01 07:50:39;;;;;;;2.63;1.33;;;;;;;;;;4731475;30;20060;-91
2024/01/01 07:53:08;;;;;;;4.90;1.50;;;;;;;;;;4711879;30;20057;-92
2024/01/01 07:55:36;;;;;;;1.55;1.00;;;;;;;;;;4736808;30;20058;-91
2024/01/01 07:58:08;;;;;;;1.08;0.68;;;;;;;;;;4744262;30;20065;-91
2024/01/01 08:01:10;;;;;;;0.80;0.80;;;6.90;99.90;;;;;;4742220;30;20114;-89
2024/01/01 08:03:36;;;;;;;1.13;1.00;;;;;;;;;;4745830;30;20060;-91
2024/01/01 08:06:03;;;;;;;2.47;0.68;;;;;;;;;;4747901;30;20057;-90
2024/01/01 08:08:44;;;;;;;4.10;1.10;;;;;;;;;;4745238;30;20608;-91
2024/01/01 08:11:16;;;;;;;3.95;1.23;;;;;;;;;;4721356;30;20156;-91
2024/01/01 08:13:48;;;;;;;2.75;1.20;;;;;;;;;;4744762;30;20461;-90
2024/01/01 08:16:21;;;;;;;5.20;1.20;;;;;;;;;;4745963;30;20064;-91
2024/01/01 08:18:49;;;;;;;10.07;1.50;;;;;;;;;;4737059;30;20057;-91
2024/01/01 08:21:21;;;;;;;8.63;1.77;;;;;;;;;;4715928;30;20115;-91
2024/01/01 08:23:48;;;;;;;1.65;1.00;;;;;;;;;;4738768;30;20049;-91
2024/01/01 08:26:14;;;;;;;7.63;1.73;;;;;;;;;;4736014;30;20172;-91
2024/01/01 08:28:40;;;;;;;2.15;1.65;;;;;;;;;;4734222;30;20153;-91
2024/01/01 08:31:06;;;;;;;6.32;1.60;;;;;;;;;;4746092;30;20057;-91
2024/01/01 08:33:32;;;;;;;5.53;1.60;;;;;;;;;;4746497;30;20053;-91
2024/01/01 08:35:58;;;;;;;7.90;1.45;;;;;;;;;;4703969;30;20544;-91
2024/01/01 08:38:25;;;;;;;6.13;1.95;;;;;;;;;;4747743;30;20049;-91
2024/01/01 08:40:52;;;;;;;6.18;1.30;;;;;;;;;;4755672;30;20068;-91
2024/01/01 08:43:18;;;;;;;5.57;1.95;;;;;;;;;;4751168;30;20091;-91
2024/01/01 08:45:44;;;;;;;7.35;2.20;;;;;;;;;;4744183;30;20081;-92
2024/01/01 08:48:10;;;;;;;4.95;1.48;;;;;;;;;;4742410;30;20052;-92
2024/01/01 08:50:36;;;;;;;3.75;1.65;;;;;;;;;;4740637;30;20107;-91
2024/01/01 08:53:02;;;;;;;8.77;1.95;;;;;;;;;;4735944;30;20057;-92
2024/01/01 08:55:28;;;;;;;9.40;2.30;;;;;;;;;;4734107;30;20080;-91
2024/01/01 08:57:54;;;;;;;4.70;1.90;;;;;;;;;;4712109;30;20063;-91
2024/01/01 09:00:20;;;;;;;5.45;1.38;;;;;;;;;;4737678;30;20063;-90
2024/01/01 09:02:46;;;;;;;7.55;2.17;;;;;;;;;;4712636;30;20168;-91
2024/01/01 09:05:15;;;;;;;5.80;2.15;;;;;;;;;;4727673;30;20140;-91
2024/01/01 09:07:44;;;;;;;9.23;2.15;;;;;;;;;;4741531;30;20060;-90
2024/01/01 09:10:10;;;;;;;4.13;1.95;;;;;;;;;;4731868;30;20057;-91
2024/01/01 09:12:53;;;;;;;2.53;1.75;;;;;;;;;;4758019;30;20060;-89
2024/01/01 09:15:21;;;;;;;4.57;1.30;;;;;;;;;;4733803;30;20060;-91
2024/01/01 09:18:10;;;;;;;2.50;1.73;;;;;;;;;;4742155;30;20106;-91
2024/01/01 09:20:38;;;;;;;4.15;1.13;;;;;;;;;;4746001;30;20056;-89
2024/01/01 09:23:05;;;;;;;3.08;1.20;;;;;;;;;;4731765;30;20077;-90
2024/01/01 09:25:43;;;;;;;1.15;0.90;;;;;;;;;;4723750;30;20063;-91
2024/01/01 09:28:10;;;;;;;3.30;1.67;;;;;;;;;;4700834;30;20057;-90
2024/01/01 09:30:36;;;;;;;2.83;1.27;;;;;;;;;;4685709;30;20056;-94
2024/01/01 09:33:02;;;;;;;1.13;0.90;;;;;;;;;;4714641;30;20104;-91
2024/01/01 09:35:28;;;;;;;3.80;1.08;;;;;;;;;;4705762;30;20053;-90
2024/01/01 09:37:55;;;;;;;1.27;1.17;;;;;;;;;;4690001;30;20062;-92
2024/01/01 09:40:22;;;;;;;4.78;1.23;;;;;;;;;;4751109;24;20068;-90
2024/01/01 09:42:50;;;;;;;4.28;1.40;;;;;;;;;;4753946;30;20079;-91
2024/01/01 09:45:16;;;;;;;4.30;1.25;;;;;;;;;;4721258;30;20137;-91
2024/01/01 09:47:51;;;;;;;5.45;1.58;;;;;;;;;;4753360;30;20056;-90
2024/01/01 09:50:20;;;;;;;5.47;1.70;;;;;;;;;;4721210;30;20055;-91
2024/01/01 09:53:05;;;;;;;4.70;1.55;;;;;;;;;;4747431;30;20052;-91
2024/01/01 09:55:34;;;;;;;4.78;1.83;;;;;;;;;;4734083;30;20060;-91
2024/01/01 09:58:09;;;;;;;4.88;1.33;;;;;;;;;;4755423;30;20495;-91
2024/01/01 10:00:37;;;;;;;7.28;2.00;;;;;;;;;;4729770;30;20056;-92
2024/01/01 10:03:10;;;;;;;6.13;2.47;;;;;;;;;;4747119;30;20063;-92
2024/01/01 10:05:36;;;;;;;3.10;1.77;;;;;;;;;;4736301;30;20060;-92
2024/01/01 10:08:09;;;;;;;6.40;2.33;;;;;;;;;;4737772;30;20059;-92
2024/01/01 10:10:37;;;;;;;5.15;1.80;;;;;;;;;;4731522;30;20514;-92
2024/01/01 10:13:13;;;;;;;5.47;2.88;;;;;;;;;;4748490;30;20062;-92
2024/01/01 10:15:40;;;;;;;6.03;1.88;;;;;;;;;;4731919;30;20048;-92
2024/01/01 10:18:10;;;;;;;5.10;2.50;;;;;;;;;;4718289;30;20075;-92
2024/01/01 10:20:36;;;;;;;5.90;2.00;;;;;;;;;;4731350;30;20052;-93
2024/01/01 10:23:23;;;;;;;8.02;2.83;;;;;;;;;;4717866;30;20060;-92
2024/01/01 10:25:52;;;;;;;9.30;3.30;;;;;;;;;;4745974;30;20060;-92
2024/01/01 10:28:24;;;;;;;11.23;2.17;;;;;;;;;;4728299;30;20049;-91
2024/01/01 10:30:50;;;;;;;5.72;2.28;;;;;;;;;;4710720;30;20056;-92
2024/01/01 10:33:16;;;;;;;7.47;2.35;;;;;;;;;;4726187;24;20059;-91
2024/01/01 10:35:45;;;;;;;9.45;2.80;;;;;;;;;;4728901;30;20071;-91
2024/01/01 10:38:18;;;;;;;8.95;2.63;;;;;;;;;;4747052;30;20055;-92
2024/01/01 10:40:49;;;;;;;12.77;1.70;;;;;;;;;;4771217;30;20048;-92
2024/01/01 10:43:25;;;;;;;5.03;2.65;;;;;;;;;;4740219;30;20131;-92
2024/01/01 10:45:59;;;;;;;16.13;2.70;;;;;;;;;;4719568;30;20072;-92
2024/01/01 10:48:37;;;;;;;8.50;2.60;;;;;;;;;;4738794;30;20535;-93
2024/01/01 10:51:14;;;;;;;5.60;2.30;;;;;;;;;;4718767;30;20061;-92
2024/01/01 10:53:49;;;;;;;15.05;3.28;;;;;;;;;;4695524;30;20134;-92
2024/01/01 10:56:28;;;;;;;9.55;3.58;;;;;;;;;;4717716;30;20157;-92
2024/01/01 10:59:11;;;;;;;8.40;3.20;;;;;;;;;;4700961;30;20133;-92
2024/01/01 11:01:37;;;;;;;8.70;2.88;;;;;;;;;;4700309;30;20518;-93
2024/01/01 11:04:04;;;;;;;8.48;2.70;;;;;;;;;;4670970;30;20073;-92
2024/01/01 11:06:39;;;;;;;14.20;3.28;;;;;;;;;;4674411;30;20605;-94
2024/01/01 11:09:20;;;;;;;6.53;2.75;;;;;;;;;;4683517;30;20061;-91
2024/01/01 11:11:50;;;;;;;5.20;2.78;;;;;;;;;;4715675;30;20471;-95
2024/01/01 11:14:25;;;;;;;7.07;2.28;;;;;;;;;;4684258;30;20506;-95
2024/01/01 11:16:52;;;;;;;12.80;2.97;;;;;;;;;;4683721;30;20061;-91
2024/01/01 11:19:36;;;;;;;6.45;2.92;;;;;;;;;;4684247;30;20135;-93
2024/01/01 11:22:20;;;;;;;8.63;2.72;;;;;;;;;;4699891;30;20060;-91
2024/01/01 11:24:48;;;;;;;6.78;1.98;;;;;;;;;;4738548;30;20063;-91
2024/01/01 11:27:31;;;;;;;8.25;3.25;;;;;;;;;;4742951;30;20056;-92
2024/01/01 11:30:16;;;;;;;12.38;3.42;;;;;;;;;;4745657;30;20068;-95
2024/01/01 11:32:42;;;;;;;16.20;2.60;;;;;;;;;;4737676;30;20051;-94
2024/01/01 11:35:12;;;;;;;16.70;3.00;;;;;;;;;;4724210;30;20064;-92
2024/01/01 11:37:40;;;;;;;8.38;2.13;;;;;;;;;;4723338;30;20139;-91
2024/01/01 11:40:07;;;;;;;5.43;1.52;;;;;;;;;;4741636;30;20063;-94
2024/01/01 11:42:34;;;;;;;6.63;1.90;;;;;;;;;;4750792;30;20439;-95
2024/01/01 11:45:07;;;;;;;10.07;2.53;;;;;;;;;;4722111;30;20495;-94
2024/01/01 11:47:33;;;;;;;9.10;2.28;;;;;;;;;;4736677;30;20055;-93
2024/01/01 11:50:01;;;;;;;5.25;1.98;;;;;;;;;;4734959;30;20083;-94
2024/01/01 11:52:27;;;;;;;7.95;2.42;;;;;;;;;;4734175;30;20051;-90
2024/01/01 11:54:53;;;;;;;9.18;2.92;;;;;;;;;;4717820;30;20921;-93
2024/01/01 11:57:20;;;;;;;11.68;3.10;;;;;;;;;;4751430;30;20071;-92
2024/01/01 11:59:48;;;;;;;14.00;2.88;;;;;;;;;;4748201;30;20082;-93
2024/01/01 12:02:21;;;;;;;13.23;3.20;;;;;;;;;;4721172;30;20052;-94
2024/01/01 12:05:01;;;;;;;12.38;2.42;;;;;;;;;;4795073;24;21429;-94
2024/01/01 12:07:34;;;;;;;8.30;3.25;;;;;;;;;;4798524;24;20131;-93
2024/01/01 12:10:11;;;;;;;16.08;3.95;;;;;;;;;;4740625;30;20084;-95
2024/01/01 12:12:44;;;;;;;12.13;2.83;;;;;;;;;;4835627;24;20060;-94
2024/01/01 12:15:30;;;;;;;10.18;3.13;;;;;;;;;;4740853;24;20069;-94
2024/01/01 12:18:09;;;;;;;9.45;2.72;;;;;;;;;;4770567;24;20061;-95
2024/01/01 12:48:34;;;;;;;8.57;2.83;;;;;;;;;;5036682;24;20048;-94
2024/01/01 12:51:41;;;;;;;7.65;2.42;;;;;;;;;;4810872;24;20056;-94
2024/01/01 12:54:24;;;;;;;10.80;2.35;;;;;;;;;;4819143;24;20035;-93
2024/01/01 22:26:28;;;;;;;16.75;6.55;;;;;;;;;;4749481;30;20112;-94
2024/01/01 22:28:54;;;;;;;25.75;8.13;;;;;;;;;;4735711;30;20073;-93
2024/01/01 22:31:21;;;;;;;18.92;7.45;;;;;;;;;;4714672;30;20056;-95
2024/01/01 22:33:53;;;;;;;20.38;5.93;;;;;;;;;;4740105;30;20090;-93
2024/01/01 22:36:21;;;;;;;15.52;5.70;;;;;;;;;;4741981;30;20044;-96
2024/01/01 22:41:57;;;;;;;18.35;7.30;;;;;;;;;;4770582;24;20052;-95
2024/01/01 22:44:33;;;;;;;15.40;5.57;;;;;;;;;;4782405;24;20054;-93
2024/01/01 22:47:05;;;;;;;10.23;5.60;;;;;;;;;;4747196;30;20131;-93
2024/01/01 22:49:31;;;;;;;21.60;6.50;;;;;;;;;;4747312;30;20067;-92
2024/01/01 22:51:57;;;;;;;18.48;6.47;;;;;;;;;;4744203;30;20048;-93
2024/01/01 22:54:24;;;;;;;20.85;5.45;;;;;;;;;;4741543;30;20056;-94
2024/01/01 22:57:14;;;;;;;10.63;5.93;;;5.80;99.90;;;;;;4758284;30;20624;-92
2024/01/01 22:59:44;;;;;;;14.93;6.15;;;;;;;;;;4743283;30;20065;-94
2024/01/01 23:02:16;;;;;;;17.35;6.78;;;;;;;;;;4745054;30;20075;-95
2024/01/01 23:04:43;;;;;;;12.55;5.35;;;;;;;;;;4747887;30;20060;-95
2024/01/01 23:07:27;;;;;;;20.13;5.75;;;;;;;;;;4750432;30;20056;-96
2024/01/01 23:09:53;;;;;;;;;;;;;;;;;;4750885;30;20052;-96
2024/01/01 23:12:22;;;;;;;20.45;5.80;;;;;;;;;;4773883;24;19960;-95
2024/01/01 23:14:48;;;;;;;11.40;5.50;;;;;;;;;;4753719;30;20110;-95
2024/01/01 23:17:15;;;;;;;14.68;4.65;;;;;;;;;;4754190;30;20059;-96
2024/01/01 23:19:48;;;;;;;15.20;5.28;;;;;;;;;;4755405;30;20048;-95
2024/01/01 23:22:16;;;;;;;11.38;4.63;;;;;;;;;;4754276;30;20076;-95
2024/01/01 23:24:47;;;;;;;9.32;4.38;;;;;;;;;;4745958;30;20055;-93
2024/01/01 23:27:28;;;;;;;8.50;4.57;;;;;;;;;;4745380;30;20090;-93
2024/01/01 23:29:54;;;;;;;11.50;4.93;;;;;;;;;;4746534;30;20486;-93
2024/01/01 23:32:26;;;;;;;24.88;5.10;;;;;;;;;;4746561;30;20134;-93
2024/01/01 23:34:53;;;;;;;9.98;4.72;;;;;;;;;;4743521;30;20093;-93
2024/01/01 23:37:31;;;;;;;16.15;5.57;;;;;;;;;;4741173;30;20052;-92
2024/01/01 23:40:15;;;;;;;8.98;4.55;;;;;;;;;;4725269;30;20053;-94
2024/01/01 23:42:43;;;;;;;12.63;4.07;;;;;;;;;;4729943;30;20132;-94
2024/01/01 23:45:10;;;;;;;13.73;4.25;;;;;;;;;;4710432;30;20072;-93
2024/01/01 23:47:37;;;;;;;13.85;4.18;;;;;;;;;;4698929;30;20143;-93
2024/01/01 23:50:03;;;;;;;8.85;3.97;;;;;;;;;;4726843;30;20092;-93
2024/01/01 23:52:29;;;;;;;9.63;3.53;;;;;;;;;;4708578;30;20053;-94
2024/01/01 23:54:58;;;;;;;13.27;3.95;;;;;;;;;;4699918;30;20130;-95
2024/01/01 23:57:28;;;;;;;14.68;5.18;;;;;;;;;;4766314;24;20055;-94
2024/01/01 23:59:56;;;;;;;12.65;6.38;;;;;;;;;;4760028;24;20032;-96
